Overview Statistics Trail Chart Weather Telemetry Raw packets
 

This is the latest recevied weather packets stored in our database for station/object N7BTW-13. If no packets are shown the sender has not sent any weather packets the latest 10 day(s).

<< 8 9 10 11 12 13 14 >>
Time Temp. Humidity Pressure Rain* Wind** Luminosity Snow
1788494408 13.89° C 89% - 0 mm - - -
1788493807 14.44° C 88% - 0 mm - - -
1788493207 14.44° C 87% - 0 mm - - -
1788492606 14.44° C 86% - 0 mm - - -
1788492007 14.44° C 86% - 0 mm - - -
1788491407 14.44° C 85% - 0 mm - - -
1788490807 15° C 84% - 0 mm - - -
1788490207 15° C 84% - 0 mm - - -
1788489609 15° C 83% - 0 mm - - -
1788489007 15.56° C 82% - 0 mm - - -
1788488406 15.56° C 82% - 0 mm - - -
1788487806 15.56° C 80% - 0 mm - - -
1788487206 16.11° C 78% - 0 mm - - -
1788486609 16.11° C 79% - 0 mm - - -
1788486006 16.67° C 76% - 0 mm - - -
1788485409 16.67° C 74% - 0 mm - - -
1788484806 17.22° C 72% - 0 mm - - -
1788484208 16.67° C 75% - 0 mm - - -
1788483607 17.22° C 73% - 0 mm - - -
1788483007 16.67° C 73% - 0 mm - - -
1788482407 17.22° C 70% - 0 mm - - -
1788481810 18.33° C 68% - 0 mm - - -
1788481206 17.78° C 72% - 0 mm - - -
1788480608 17.22° C 73% - 0 mm - - -
1788480007 16.67° C 74% - 0 mm - - -

* Rain latest hour (hover to see other rain measurements)
** Current wind speed in m/s (hover to see current wind gust speed)